Time;durP1;ratioP1;P1;durP2;ratioP2;P2;SDS_P1;SDS_P2;PMS_P1;PMS_P2;Temp;Humidity;BMP_temperature;BMP_pressure;BME280_temperature;BME280_humidity;BME280_pressure;Samples;Min_cycle;Max_cycle;Signal;HPM_P1;HPM_P2
2023/04/18 00:02:16;;;;;;;;;;;13.30;99.90;;;;;;4831530;29;19920;-64
2023/04/18 00:04:45;;;;;;;;;;;13.30;99.90;;;;;;4835760;29;20003;-64
2023/04/18 00:07:13;;;;;;;;;;;13.20;99.90;;;;;;4839572;29;19916;-64
2023/04/18 00:09:39;;;;;;;;;;;13.30;99.90;;;;;;4821715;29;19946;-64
2023/04/18 00:12:05;;;;;;;;;;;13.20;99.90;;;;;;4835957;29;19940;-63
2023/04/18 00:14:33;;;;;;;;;;;13.20;99.90;;;;;;4836952;29;19945;-63
2023/04/18 00:17:01;;;;;;;;;;;13.20;99.90;;;;;;4839977;29;19961;-63
2023/04/18 00:19:26;;;;;;;;;;;13.20;99.90;;;;;;4834621;29;19945;-65
2023/04/18 00:21:52;;;;;;;;;;;13.20;99.90;;;;;;4832232;29;19934;-64
2023/04/18 00:24:18;;;;;;;;;;;13.20;99.90;;;;;;4839368;29;20845;-64
2023/04/18 00:26:44;;;;;;;;;;;13.20;99.90;;;;;;4832825;29;21097;-64
2023/04/18 00:29:10;;;;;;;;;;;13.20;99.90;;;;;;4836359;29;19954;-65
2023/04/18 00:31:35;;;;;;;;;;;13.10;99.90;;;;;;4837710;29;19987;-64
2023/04/18 00:34:01;;;;;;;;;;;13.10;99.90;;;;;;4830914;29;19962;-64
2023/04/18 00:36:26;;;;;;;;;;;13.10;99.90;;;;;;4816725;29;20441;-63
2023/04/18 00:38:52;;;;;;;;;;;13.20;99.90;;;;;;4803502;29;20083;-63
2023/04/18 00:41:18;;;;;;;;;;;13.20;99.90;;;;;;4828530;29;20452;-64
2023/04/18 00:43:44;;;;;;;;;;;13.20;99.90;;;;;;4834938;29;19987;-64
2023/04/18 00:46:09;;;;;;;;;;;13.20;99.90;;;;;;4821920;29;20423;-64
2023/04/18 00:48:37;;;;;;;;;;;13.20;99.90;;;;;;4813492;29;19927;-64
2023/04/18 00:51:04;;;;;;;;;;;13.20;99.90;;;;;;4805890;29;19920;-64
2023/04/18 00:53:29;;;;;;;;;;;13.20;99.90;;;;;;4802639;29;19924;-63
2023/04/18 00:55:55;;;;;;;;;;;13.20;99.90;;;;;;4804405;29;19988;-63
2023/04/18 00:58:21;;;;;;;;;;;13.20;99.90;;;;;;4822397;29;19976;-64
2023/04/18 01:00:47;;;;;;;;;;;13.10;99.90;;;;;;4815657;29;19920;-64
2023/04/18 01:03:13;;;;;;;;;;;13.10;99.90;;;;;;4819350;29;19922;-64
2023/04/18 01:05:38;;;;;;;;;;;13.10;99.90;;;;;;4827331;29;19927;-63
2023/04/18 01:08:04;;;;;;;;;;;13.10;99.90;;;;;;4826636;29;20463;-64
2023/04/18 01:10:30;;;;;;;;;;;13.10;99.90;;;;;;4825013;29;19939;-63
2023/04/18 01:13:31;;;;;;;;;;;13.10;99.90;;;;;;4825058;29;19916;-64
2023/04/18 01:15:57;;;;;;;;;;;13.00;99.90;;;;;;4750281;29;20064;-63
2023/04/18 01:18:24;;;;;;;;;;;13.10;99.90;;;;;;4806660;29;19912;-64
2023/04/18 01:20:50;;;;;;;;;;;13.10;99.90;;;;;;4825589;29;19920;-64
2023/04/18 01:23:16;;;;;;;;;;;13.10;99.90;;;;;;4823750;29;19940;-64
2023/04/18 01:25:43;;;;;;;;;;;13.10;99.90;;;;;;4823136;29;19920;-63
2023/04/18 01:28:09;;;;;;;;;;;13.10;99.90;;;;;;4828852;29;19943;-63
2023/04/18 01:30:34;;;;;;;;;;;13.10;99.90;;;;;;4825838;29;20718;-64
2023/04/18 01:33:00;;;;;;;;;;;13.10;99.90;;;;;;4825413;29;20767;-64
2023/04/18 01:35:26;;;;;;;;;;;13.00;99.90;;;;;;4829610;29;19920;-63
2023/04/18 01:37:52;;;;;;;;;;;13.00;99.90;;;;;;4822745;29;19960;-64
2023/04/18 01:40:17;;;;;;;;;;;13.00;99.90;;;;;;4829152;29;19920;-64
2023/04/18 01:42:43;;;;;;;;;;;13.00;99.90;;;;;;4809403;29;19955;-64
2023/04/18 01:45:10;;;;;;;;;;;13.10;99.90;;;;;;4828178;29;19920;-64
2023/04/18 01:47:35;;;;;;;;;;;13.00;99.90;;;;;;4832070;29;20550;-62
2023/04/18 01:50:01;;;;;;;;;;;13.00;99.90;;;;;;4827281;29;19953;-62
2023/04/18 01:52:27;;;;;;;;;;;13.00;99.90;;;;;;4829633;29;20008;-62
2023/04/18 01:54:52;;;;;;;;;;;13.00;99.90;;;;;;4827921;29;20052;-62
2023/04/18 01:57:18;;;;;;;;;;;13.00;99.90;;;;;;4829001;29;20125;-62
2023/04/18 01:59:43;;;;;;;;;;;13.00;99.90;;;;;;4830121;29;19950;-61
2023/04/18 02:02:10;;;;;;;;;;;13.00;99.90;;;;;;4826579;29;19990;-62
2023/04/18 02:04:35;;;;;;;;;;;13.00;99.90;;;;;;4825572;29;21352;-62
2023/04/18 02:07:01;;;;;;;;;;;13.00;99.90;;;;;;4827119;29;19986;-62
2023/04/18 02:09:26;;;;;;;;;;;13.00;99.90;;;;;;4829692;29;19946;-62
2023/04/18 02:11:54;;;;;;;;;;;13.00;99.90;;;;;;4820228;29;21182;-62
2023/04/18 02:14:19;;;;;;;;;;;13.00;99.90;;;;;;4822859;29;19943;-62
2023/04/18 02:16:45;;;;;;;;;;;13.00;99.90;;;;;;4824605;29;19960;-63
2023/04/18 02:19:10;;;;;;;;;;;13.10;99.90;;;;;;4831536;29;19951;-62
2023/04/18 02:21:36;;;;;;;;;;;13.10;99.90;;;;;;4828240;29;20621;-63
2023/04/18 02:24:01;;;;;;;;;;;13.00;99.90;;;;;;4830130;29;19948;-62
2023/04/18 02:26:27;;;;;;;;;;;13.00;99.90;;;;;;4828353;29;19941;-62
2023/04/18 02:28:52;;;;;;;;;;;13.00;99.90;;;;;;4826526;29;20469;-62
2023/04/18 02:31:18;;;;;;;;;;;13.00;99.90;;;;;;4826395;29;20409;-62
2023/04/18 02:33:44;;;;;;;;;;;13.00;99.90;;;;;;4827883;29;19945;-62
2023/04/18 02:36:13;;;;;;;;;;;13.00;99.90;;;;;;4826591;29;20932;-62
2023/04/18 02:38:38;;;;;;;;;;;13.00;99.90;;;;;;4825543;29;19972;-62
2023/04/18 02:41:04;;;;;;;;;;;13.00;99.90;;;;;;4813235;29;19960;-62
2023/04/18 02:43:29;;;;;;;;;;;13.10;99.90;;;;;;4823892;29;19938;-62
2023/04/18 02:45:55;;;;;;;;;;;13.00;99.90;;;;;;4818871;29;19940;-62
2023/04/18 02:48:21;;;;;;;;;;;13.10;99.90;;;;;;4827210;29;19970;-62
2023/04/18 02:50:47;;;;;;;;;;;13.00;99.90;;;;;;4820644;29;19945;-62
2023/04/18 02:53:13;;;;;;;;;;;13.00;99.90;;;;;;4811610;29;19985;-62
2023/04/18 02:55:38;;;;;;;;;;;12.90;99.90;;;;;;4826597;29;20310;-62
2023/04/18 02:58:04;;;;;;;;;;;12.90;99.90;;;;;;4825648;29;20386;-62
2023/04/18 03:00:29;;;;;;;;;;;12.90;99.90;;;;;;4829255;29;21328;-62
2023/04/18 03:02:55;;;;;;;;;;;12.90;99.90;;;;;;4831053;29;19932;-62
2023/04/18 03:05:20;;;;;;;;;;;12.90;99.90;;;;;;4828754;29;20714;-62
2023/04/18 03:07:46;;;;;;;;;;;12.90;99.90;;;;;;4827002;29;23205;-62
2023/04/18 03:10:12;;;;;;;;;;;12.90;99.90;;;;;;4826342;29;20453;-61
2023/04/18 03:12:38;;;;;;;;;;;12.90;99.90;;;;;;4826768;29;19966;-62
2023/04/18 03:15:03;;;;;;;;;;;12.90;99.90;;;;;;4823112;29;19976;-62
2023/04/18 03:17:29;;;;;;;;;;;12.90;99.90;;;;;;4829080;29;20058;-64
2023/04/18 03:19:54;;;;;;;;;;;12.90;99.90;;;;;;4829742;29;20722;-64
2023/04/18 03:22:20;;;;;;;;;;;12.90;99.90;;;;;;4823271;29;19926;-64
2023/04/18 03:24:46;;;;;;;;;;;12.90;99.90;;;;;;4825886;29;19948;-63
2023/04/18 03:27:11;;;;;;;;;;;12.90;99.90;;;;;;4821733;29;19917;-64
2023/04/18 03:29:37;;;;;;;;;;;12.90;99.90;;;;;;4828314;29;19927;-64
2023/04/18 03:32:03;;;;;;;;;;;12.90;99.90;;;;;;4828561;29;19984;-64
2023/04/18 03:34:28;;;;;;;;;;;12.80;99.90;;;;;;4841503;29;19924;-64
2023/04/18 03:36:54;;;;;;;;;;;12.80;99.90;;;;;;4832764;29;19956;-64
2023/04/18 03:39:19;;;;;;;;;;;12.80;99.90;;;;;;4840370;29;20493;-64
2023/04/18 03:41:45;;;;;;;;;;;12.80;99.90;;;;;;4837375;29;19968;-62
2023/04/18 03:44:10;;;;;;;;;;;12.80;99.90;;;;;;4841321;29;19920;-62
2023/04/18 03:46:36;;;;;;;;;;;12.80;99.90;;;;;;4842065;29;20006;-62
2023/04/18 03:49:02;;;;;;;;;;;12.80;99.90;;;;;;4837857;29;19944;-62
2023/04/18 03:51:31;;;;;;;;;;;12.70;99.90;;;;;;4836173;29;19916;-62
2023/04/18 03:53:57;;;;;;;;;;;12.70;99.90;;;;;;4840021;29;19998;-62
2023/04/18 03:56:22;;;;;;;;;;;12.80;99.90;;;;;;4838298;29;19935;-62
2023/04/18 03:58:48;;;;;;;;;;;12.80;99.90;;;;;;4831455;29;19951;-61
2023/04/18 04:01:13;;;;;;;;;;;12.80;99.90;;;;;;4835838;29;20332;-62
2023/04/18 04:03:39;;;;;;;;;;;12.80;99.90;;;;;;4838220;29;19920;-61
2023/04/18 04:06:05;;;;;;;;;;;12.90;99.90;;;;;;4839589;29;19960;-62
2023/04/18 04:08:30;;;;;;;;;;;12.80;99.90;;;;;;4837633;29;20035;-62
2023/04/18 04:10:56;;;;;;;;;;;12.80;99.90;;;;;;4830512;29;20378;-63
2023/04/18 04:13:21;;;;;;;;;;;12.80;99.90;;;;;;4836955;29;19949;-62
2023/04/18 04:15:47;;;;;;;;;;;12.80;99.90;;;;;;4829945;29;20002;-61
2023/04/18 04:18:12;;;;;;;;;;;12.80;99.90;;;;;;4844202;29;19939;-62
2023/04/18 04:20:38;;;;;;;;;;;12.90;99.90;;;;;;4840429;29;20521;-61
2023/04/18 04:23:05;;;;;;;;;;;12.90;99.90;;;;;;4837115;29;20097;-65
2023/04/18 04:25:32;;;;;;;;;;;12.90;99.90;;;;;;4835755;29;19951;-61
2023/04/18 04:28:00;;;;;;;;;;;12.90;99.90;;;;;;4831169;29;19966;-62
2023/04/18 04:30:25;;;;;;;;;;;12.90;99.90;;;;;;4831246;29;19950;-62
2023/04/18 04:32:52;;;;;;;;;;;12.90;99.90;;;;;;4827872;29;20568;-62
2023/04/18 04:35:18;;;;;;;;;;;13.00;99.90;;;;;;4840326;29;20420;-62
2023/04/18 04:37:43;;;;;;;;;;;13.00;99.90;;;;;;4837778;29;20061;-61
2023/04/18 04:40:09;;;;;;;;;;;13.00;99.90;;;;;;4835802;29;20326;-62
2023/04/18 04:42:35;;;;;;;;;;;13.00;99.90;;;;;;4840557;29;19946;-62
2023/04/18 04:45:01;;;;;;;;;;;13.00;99.90;;;;;;4834150;29;19966;-62
2023/04/18 04:47:27;;;;;;;;;;;13.00;99.90;;;;;;4833945;29;19966;-63
2023/04/18 04:49:52;;;;;;;;;;;13.00;99.90;;;;;;4824629;29;20007;-62
2023/04/18 04:52:18;;;;;;;;;;;13.10;99.90;;;;;;4824893;29;19920;-63
2023/04/18 04:54:44;;;;;;;;;;;13.00;99.90;;;;;;4825109;29;20429;-62
2023/04/18 04:57:10;;;;;;;;;;;13.00;99.90;;;;;;4823918;29;20506;-63
2023/04/18 04:59:35;;;;;;;;;;;13.00;99.90;;;;;;4831058;29;19924;-63
2023/04/18 05:02:01;;;;;;;;;;;13.00;99.90;;;;;;4819847;29;19924;-62
2023/04/18 05:04:27;;;;;;;;;;;13.00;99.90;;;;;;4830044;29;19920;-64
2023/04/18 05:06:53;;;;;;;;;;;13.10;99.90;;;;;;4828174;29;19959;-63
2023/04/18 05:09:19;;;;;;;;;;;13.10;99.90;;;;;;4832505;29;20034;-63
2023/04/18 05:11:45;;;;;;;;;;;13.10;99.90;;;;;;4830773;29;19923;-63
2023/04/18 05:14:11;;;;;;;;;;;13.10;99.90;;;;;;4823888;29;19943;-65
2023/04/18 05:16:36;;;;;;;;;;;13.20;99.90;;;;;;4829073;29;20421;-63
2023/04/18 05:19:02;;;;;;;;;;;13.20;99.90;;;;;;4820571;29;20740;-63
2023/04/18 05:21:28;;;;;;;;;;;13.20;99.90;;;;;;4820242;29;19928;-63
2023/04/18 05:23:54;;;;;;;;;;;13.20;99.90;;;;;;4822201;29;19925;-64
2023/04/18 05:26:20;;;;;;;;;;;13.20;99.90;;;;;;4820757;29;19920;-64
2023/04/18 05:28:46;;;;;;;;;;;13.20;99.90;;;;;;4816166;29;20537;-63
2023/04/18 05:31:11;;;;;;;;;;;13.20;99.90;;;;;;4827813;29;19920;-63
2023/04/18 05:33:37;;;;;;;;;;;13.20;99.90;;;;;;4834693;29;19997;-63
2023/04/18 05:36:02;;;;;;;;;;;13.20;99.90;;;;;;4833769;29;20015;-62
2023/04/18 05:38:28;;;;;;;;;;;13.20;99.90;;;;;;4833901;29;20315;-63
2023/04/18 05:40:54;;;;;;;;;;;13.30;99.90;;;;;;4828406;29;19920;-63
2023/04/18 05:43:20;;;;;;;;;;;13.20;99.90;;;;;;4822730;29;19920;-63
2023/04/18 05:45:46;;;;;;;;;;;13.30;99.90;;;;;;4828533;29;20366;-63
2023/04/18 05:48:12;;;;;;;;;;;13.30;99.90;;;;;;4828955;29;19924;-63
2023/04/18 05:50:37;;;;;;;;;;;13.30;99.90;;;;;;4827960;29;23593;-63
2023/04/18 05:53:03;;;;;;;;;;;13.30;99.90;;;;;;4829854;29;19916;-63
2023/04/18 05:55:29;;;;;;;;;;;13.30;99.90;;;;;;4833704;29;20035;-63
2023/04/18 05:57:54;;;;;;;;;;;13.40;99.90;;;;;;4829125;29;19927;-63
2023/04/18 06:00:20;;;;;;;;;;;13.50;99.90;;;;;;4822635;29;19996;-62
2023/04/18 06:02:45;;;;;;;;;;;13.50;99.90;;;;;;4825678;29;19924;-63
2023/04/18 06:05:11;;;;;;;;;;;13.60;99.90;;;;;;4810057;29;20501;-63
2023/04/18 06:07:37;;;;;;;;;;;13.70;99.90;;;;;;4835508;29;19994;-62
2023/04/18 06:10:04;;;;;;;;;;;13.80;99.90;;;;;;4824689;29;19939;-63
2023/04/18 06:12:30;;;;;;;;;;;13.80;99.90;;;;;;4824125;29;20024;-63
2023/04/18 06:14:55;;;;;;;;;;;13.80;99.90;;;;;;4828510;29;19921;-63
2023/04/18 06:17:21;;;;;;;;;;;13.70;99.90;;;;;;4826716;29;20294;-63
2023/04/18 06:19:46;;;;;;;;;;;13.70;99.90;;;;;;4829237;29;19916;-64
2023/04/18 06:22:12;;;;;;;;;;;13.80;99.90;;;;;;4822814;29;19920;-63
2023/04/18 06:24:37;;;;;;;;;;;13.80;99.90;;;;;;4832198;29;19927;-64
2023/04/18 06:27:04;;;;;;;;;;;13.80;99.90;;;;;;4827433;29;20015;-63
2023/04/18 06:29:31;;;;;;;;;;;13.80;99.90;;;;;;4831127;29;19927;-63
2023/04/18 06:31:57;;;;;;;;;;;13.80;99.90;;;;;;4827040;29;19942;-63
2023/04/18 06:34:23;;;;;;;;;;;13.80;99.90;;;;;;4835958;29;20388;-63
2023/04/18 06:36:49;;;;;;;;;;;13.80;99.90;;;;;;4819491;29;20500;-63
2023/04/18 06:39:15;;;;;;;;;;;13.70;99.90;;;;;;4841374;29;19916;-63
2023/04/18 06:41:40;;;;;;;;;;;13.70;99.90;;;;;;4841837;29;20047;-63
2023/04/18 06:44:06;;;;;;;;;;;13.70;99.90;;;;;;4832701;29;19959;-63
2023/04/18 06:46:31;;;;;;;;;;;13.70;99.90;;;;;;4841238;29;19919;-63
2023/04/18 06:48:57;;;;;;;;;;;13.70;99.90;;;;;;4836394;29;19928;-63
2023/04/18 06:51:22;;;;;;;;;;;13.70;99.90;;;;;;4833489;29;20011;-63
2023/04/18 06:53:51;;;;;;;;;;;13.70;99.90;;;;;;4829286;29;19912;-62
2023/04/18 06:56:19;;;;;;;;;;;13.70;99.90;;;;;;4818993;29;19939;-63
2023/04/18 06:58:45;;;;;;;;;;;13.70;99.90;;;;;;4817364;29;19931;-63
2023/04/18 07:01:10;;;;;;;;;;;13.60;99.90;;;;;;4838937;29;20296;-63
2023/04/18 07:03:36;;;;;;;;;;;13.70;99.90;;;;;;4827240;29;19973;-64
2023/04/18 07:06:04;;;;;;;;;;;13.70;99.90;;;;;;4831027;29;19969;-62
2023/04/18 07:08:30;;;;;;;;;;;13.70;99.90;;;;;;4837553;29;20456;-64
2023/04/18 07:10:55;;;;;;;;;;;13.70;99.90;;;;;;4831050;29;19920;-63
2023/04/18 07:13:21;;;;;;;;;;;13.70;99.90;;;;;;4830609;29;21231;-63
2023/04/18 07:15:46;;;;;;;;;;;13.70;99.90;;;;;;4804591;29;19920;-63
2023/04/18 07:18:12;;;;;;;;;;;13.70;99.90;;;;;;4832278;29;19911;-63
2023/04/18 07:20:37;;;;;;;;;;;13.70;99.90;;;;;;4843422;29;19959;-64
2023/04/18 07:23:03;;;;;;;;;;;13.80;99.90;;;;;;4841252;29;19951;-64
2023/04/18 07:25:29;;;;;;;;;;;13.90;99.90;;;;;;4843646;29;19931;-64
2023/04/18 07:27:54;;;;;;;;;;;13.90;99.90;;;;;;4838238;29;19984;-63
2023/04/18 07:30:20;;;;;;;;;;;14.00;99.90;;;;;;4837641;29;19938;-63
2023/04/18 07:32:46;;;;;;;;;;;14.20;99.90;;;;;;4840674;29;19919;-63
2023/04/18 07:35:12;;;;;;;;;;;14.20;99.90;;;;;;4838511;29;20397;-63
2023/04/18 07:37:37;;;;;;;;;;;14.30;99.90;;;;;;4838713;29;19920;-63
2023/04/18 07:40:04;;;;;;;;;;;14.40;99.90;;;;;;4838437;29;19968;-63
2023/04/18 07:42:29;;;;;;;;;;;14.40;99.90;;;;;;4839607;29;19924;-62
2023/04/18 07:44:57;;;;;;;;;;;14.40;99.90;;;;;;4834727;29;20618;-63
2023/04/18 07:47:24;;;;;;;;;;;14.50;99.90;;;;;;4840189;29;19931;-63
2023/04/18 07:49:49;;;;;;;;;;;14.60;99.90;;;;;;4840832;29;19916;-62
2023/04/18 07:52:15;;;;;;;;;;;14.70;99.90;;;;;;4822626;29;20024;-63
2023/04/18 07:54:40;;;;;;;;;;;14.70;99.90;;;;;;4827900;29;19912;-63
2023/04/18 07:57:06;;;;;;;;;;;14.70;99.90;;;;;;4822821;29;19924;-63
2023/04/18 07:59:31;;;;;;;;;;;14.80;99.90;;;;;;4836438;29;20043;-63
2023/04/18 08:01:57;;;;;;;;;;;14.80;99.90;;;;;;4822580;29;19941;-63
2023/04/18 08:04:22;;;;;;;;;;;14.90;99.90;;;;;;4830604;29;20951;-63
2023/04/18 08:06:48;;;;;;;;;;;14.90;99.90;;;;;;4831806;29;19954;-62
2023/04/18 08:09:14;;;;;;;;;;;15.00;99.90;;;;;;4831973;29;20011;-62
2023/04/18 08:11:40;;;;;;;;;;;15.10;99.90;;;;;;4829436;29;20003;-63
2023/04/18 08:14:05;;;;;;;;;;;15.10;99.90;;;;;;4836754;29;19931;-63
2023/04/18 08:16:31;;;;;;;;;;;15.10;99.90;;;;;;4836351;29;19928;-62
2023/04/18 08:18:56;;;;;;;;;;;15.10;99.90;;;;;;4836401;29;20914;-62
2023/04/18 08:21:22;;;;;;;;;;;15.10;99.90;;;;;;4833872;29;19965;-63
2023/04/18 08:23:47;;;;;;;;;;;15.20;99.90;;;;;;4820509;29;19919;-63
2023/04/18 08:26:13;;;;;;;;;;;15.20;99.90;;;;;;4825753;29;21132;-63
2023/04/18 08:28:38;;;;;;;;;;;15.30;99.90;;;;;;4821233;29;19970;-62
2023/04/18 08:31:04;;;;;;;;;;;15.40;99.90;;;;;;4841102;29;19951;-63
2023/04/18 08:33:30;;;;;;;;;;;15.40;99.90;;;;;;4831269;29;20149;-63
2023/04/18 08:35:55;;;;;;;;;;;15.40;99.90;;;;;;4831255;29;20022;-63
2023/04/18 08:38:21;;;;;;;;;;;15.40;99.90;;;;;;4830288;29;20604;-63
2023/04/18 08:40:47;;;;;;;;;;;15.50;99.90;;;;;;4836185;29;20007;-63
2023/04/18 08:43:13;;;;;;;;;;;15.50;99.90;;;;;;4840788;29;20691;-63
2023/04/18 08:45:39;;;;;;;;;;;15.40;99.90;;;;;;4832294;29;20452;-62
2023/04/18 08:48:06;;;;;;;;;;;15.40;99.90;;;;;;4821981;29;20373;-62
2023/04/18 08:50:32;;;;;;;;;;;15.40;99.90;;;;;;4832115;29;19920;-63
2023/04/18 08:52:59;;;;;;;;;;;15.40;99.90;;;;;;4824055;29;20380;-63
2023/04/18 08:55:25;;;;;;;;;;;15.50;99.90;;;;;;4821748;29;20024;-63
2023/04/18 08:57:54;;;;;;;;;;;15.50;99.90;;;;;;4824056;29;20589;-63
2023/04/18 09:00:21;;;;;;;;;;;15.60;99.90;;;;;;4832129;29;21012;-63
2023/04/18 09:02:48;;;;;;;;;;;15.60;99.90;;;;;;4825264;29;19920;-63
2023/04/18 09:05:20;;;;;;;;;;;15.70;99.90;;;;;;4817370;29;19955;-63
2023/04/18 09:07:46;;;;;;;;;;;15.70;99.90;;;;;;4838536;29;20083;-63
2023/04/18 09:10:12;;;;;;;;;;;15.80;99.90;;;;;;4828084;29;19920;-63
2023/04/18 09:12:50;;;;;;;;;;;15.80;99.90;;;;;;4843464;29;19919;-63
2023/04/18 09:15:19;;;;;;;;;;;15.80;99.90;;;;;;4837746;29;19924;-63
2023/04/18 09:17:48;;;;;;;;;;;15.80;99.90;;;;;;4836331;29;19928;-63
2023/04/18 09:20:24;;;;;;;;;;;15.80;99.90;;;;;;4830757;29;20350;-63
2023/04/18 09:22:56;;;;;;;;;;;15.90;99.90;;;;;;4816496;29;19987;-63
2023/04/18 09:25:33;;;;;;;;;;;15.90;99.90;;;;;;4831776;29;19964;-63
2023/04/18 09:28:00;;;;;;;;;;;15.90;99.90;;;;;;4833343;29;20345;-63
2023/04/18 09:30:39;;;;;;;;;;;16.00;99.90;;;;;;4827997;29;20486;-63
2023/04/18 09:33:06;;;;;;;;;;;16.10;99.90;;;;;;4833409;29;20357;-62
2023/04/18 09:35:32;;;;;;;;;;;16.10;99.90;;;;;;4839489;29;19924;-63
2023/04/18 09:37:58;;;;;;;;;;;16.20;99.90;;;;;;4830248;29;20522;-63
2023/04/18 09:40:23;;;;;;;;;;;16.20;99.90;;;;;;4822543;29;19920;-63
2023/04/18 09:42:50;;;;;;;;;;;16.30;99.90;;;;;;4822583;29;20011;-63
2023/04/18 09:45:16;;;;;;;;;;;16.30;99.90;;;;;;4836789;29;20040;-63
2023/04/18 09:47:41;;;;;;;;;;;16.30;99.90;;;;;;4839500;29;19929;-63
2023/04/18 09:50:07;;;;;;;;;;;16.40;99.90;;;;;;4826504;29;19924;-63
2023/04/18 09:52:34;;;;;;;;;;;16.40;99.90;;;;;;4832640;29;19915;-63
2023/04/18 09:55:01;;;;;;;;;;;16.40;99.90;;;;;;4837834;29;20003;-63
2023/04/18 09:57:27;;;;;;;;;;;16.50;99.90;;;;;;4838314;29;19955;-63
2023/04/18 10:00:16;;;;;;;;;;;16.50;99.90;;;;;;4839340;29;19919;-63
2023/04/18 10:02:50;;;;;;;;;;;16.50;99.90;;;;;;4827333;29;19923;-63
2023/04/18 10:05:16;;;;;;;;;;;16.60;99.90;;;;;;4828809;29;20855;-63
2023/04/18 10:07:46;;;;;;;;;;;16.50;99.90;;;;;;4826707;29;19923;-64
2023/04/18 10:10:12;;;;;;;;;;;16.50;99.90;;;;;;4834045;29;19920;-63
2023/04/18 10:12:39;;;;;;;;;;;16.60;99.90;;;;;;4846434;29;20003;-63
2023/04/18 10:15:05;;;;;;;;;;;16.70;99.90;;;;;;4836893;29;19920;-64
2023/04/18 10:18:00;;;;;;;;;;;16.80;99.90;;;;;;4836600;29;19930;-64
2023/04/18 10:20:29;;;;;;;;;;;16.90;99.90;;;;;;4818148;29;19927;-63
2023/04/18 10:22:56;;;;;;;;;;;17.10;99.90;;;;;;4828192;29;19956;-63
2023/04/18 10:25:34;;;;;;;;;;;17.10;99.90;;;;;;4827472;29;19936;-64
2023/04/18 10:28:00;;;;;;;;;;;17.20;99.90;;;;;;4839067;29;19920;-64
2023/04/18 10:30:46;;;;;;;;;;;17.20;99.90;;;;;;4832085;29;19927;-64
2023/04/18 10:33:24;;;;;;;;;;;17.20;99.90;;;;;;4820514;29;19961;-64
2023/04/18 10:36:02;;;;;;;;;;;17.40;99.90;;;;;;4824748;29;19928;-64
2023/04/18 10:38:28;;;;;;;;;;;17.60;99.90;;;;;;4829815;29;19951;-64
2023/04/18 10:41:12;;;;;;;;;;;17.70;99.90;;;;;;4829376;29;20953;-63
2023/04/18 10:43:57;;;;;;;;;;;17.70;99.90;;;;;;4842593;29;19919;-64
2023/04/18 10:46:22;;;;;;;;;;;17.80;99.90;;;;;;4841333;29;20005;-64
2023/04/18 10:49:08;;;;;;;;;;;17.90;99.90;;;;;;4836376;29;19935;-64
2023/04/18 10:51:33;;;;;;;;;;;18.00;99.90;;;;;;4820402;29;20387;-63
2023/04/18 10:53:59;;;;;;;;;;;18.20;99.90;;;;;;4825265;29;19919;-64
2023/04/18 10:56:26;;;;;;;;;;;18.30;99.90;;;;;;4833375;29;19928;-63
2023/04/18 10:58:52;;;;;;;;;;;18.30;99.90;;;;;;4828620;29;19920;-64
2023/04/18 11:01:22;;;;;;;;;;;18.30;99.90;;;;;;4828761;29;19913;-63
2023/04/18 11:03:48;;;;;;;;;;;18.40;99.90;;;;;;4842093;29;19916;-63
2023/04/18 11:06:13;;;;;;;;;;;18.50;99.90;;;;;;4830744;29;19938;-63
2023/04/18 11:08:39;;;;;;;;;;;18.60;99.90;;;;;;4838714;29;20181;-63
2023/04/18 11:11:08;;;;;;;;;;;18.60;99.60;;;;;;4835758;29;19916;-63
2023/04/18 11:13:35;;;;;;;;;;;18.60;99.90;;;;;;4841476;29;20560;-63
2023/04/18 11:16:01;;;;;;;;;;;18.60;98.90;;;;;;4831791;29;20011;-63
2023/04/18 11:18:37;;;;;;;;;;;18.60;98.00;;;;;;4837994;29;19938;-63
2023/04/18 11:21:03;;;;;;;;;;;18.70;97.40;;;;;;4837330;29;19912;-63
2023/04/18 11:23:29;;;;;;;;;;;18.80;93.40;;;;;;4843208;29;19957;-63
2023/04/18 11:25:55;;;;;;;;;;;18.80;95.10;;;;;;4833797;29;19928;-63
2023/04/18 11:28:21;;;;;;;;;;;18.80;94.00;;;;;;4837477;29;19912;-63
2023/04/18 11:30:47;;;;;;;;;;;18.80;94.60;;;;;;4838259;29;19920;-63
2023/04/18 11:33:13;;;;;;;;;;;18.90;95.80;;;;;;4837646;29;19947;-64
2023/04/18 11:35:40;;;;;;;;;;;19.10;97.20;;;;;;4843835;29;19928;-63
2023/04/18 11:38:05;;;;;;;;;;;19.20;95.10;;;;;;4839859;29;19916;-63
2023/04/18 11:40:31;;;;;;;;;;;19.30;96.90;;;;;;4839429;29;19966;-63
2023/04/18 11:42:59;;;;;;;;;;;19.40;95.30;;;;;;4833993;29;19968;-64
2023/04/18 11:45:25;;;;;;;;;;;19.40;96.50;;;;;;4835285;29;19926;-63
2023/04/18 11:47:53;;;;;;;;;;;19.20;93.40;;;;;;4817248;29;20293;-64
2023/04/18 11:50:19;;;;;;;;;;;19.10;92.90;;;;;;4835495;29;20724;-63
2023/04/18 11:52:48;;;;;;;;;;;19.10;92.30;;;;;;4835611;29;19926;-63
2023/04/18 11:55:18;;;;;;;;;;;19.20;93.10;;;;;;4844867;29;20456;-63
2023/04/18 11:57:53;;;;;;;;;;;19.30;90.90;;;;;;4843401;29;19916;-63
2023/04/18 12:00:29;;;;;;;;;;;19.30;90.90;;;;;;4838476;29;19924;-63
2023/04/18 12:02:54;;;;;;;;;;;19.30;90.00;;;;;;4829736;29;19944;-63
2023/04/18 12:05:26;;;;;;;;;;;19.40;88.20;;;;;;4826959;29;19916;-63
2023/04/18 12:07:52;;;;;;;;;;;19.50;86.60;;;;;;4821295;29;20442;-64
2023/04/18 12:10:20;;;;;;;;;;;19.40;79.80;;;;;;4827600;29;19996;-63
2023/04/18 12:12:58;;;;;;;;;;;19.40;81.70;;;;;;4838379;29;19916;-63
2023/04/18 12:15:28;;;;;;;;;;;19.30;78.60;;;;;;4840401;29;19928;-62
2023/04/18 12:17:58;;;;;;;;;;;19.30;82.90;;;;;;4836561;29;19923;-62
2023/04/18 12:20:24;;;;;;;;;;;19.30;84.10;;;;;;4841029;29;19927;-62
2023/04/18 12:22:50;;;;;;;;;;;19.50;81.10;;;;;;4837105;29;19920;-65
2023/04/18 12:25:21;;;;;;;;;;;19.50;75.60;;;;;;4839739;29;19920;-62
2023/04/18 12:27:47;;;;;;;;;;;19.40;79.10;;;;;;4844645;29;19912;-62
2023/04/18 12:30:14;;;;;;;;;;;19.40;74.10;;;;;;4839856;29;20030;-63
2023/04/18 12:32:40;;;;;;;;;;;19.20;69.10;;;;;;4840279;29;19920;-63
2023/04/18 12:35:06;;;;;;;;;;;19.10;73.80;;;;;;4845516;29;19923;-63
2023/04/18 12:37:31;;;;;;;;;;;19.00;70.00;;;;;;4851337;29;20896;-63
2023/04/18 12:39:57;;;;;;;;;;;19.00;70.90;;;;;;4837349;29;20003;-62
2023/04/18 12:42:22;;;;;;;;;;;19.00;68.20;;;;;;4828686;29;19916;-62
2023/04/18 12:44:48;;;;;;;;;;;19.00;68.10;;;;;;4828295;29;19912;-62
2023/04/18 12:47:14;;;;;;;;;;;19.00;68.20;;;;;;4837459;29;19917;-62
2023/04/18 12:49:39;;;;;;;;;;;19.00;69.10;;;;;;4828319;29;19920;-62
2023/04/18 12:52:05;;;;;;;;;;;19.10;66.80;;;;;;4832049;29;19920;-62
2023/04/18 12:54:30;;;;;;;;;;;19.20;65.90;;;;;;4833582;29;19912;-63
2023/04/18 12:56:56;;;;;;;;;;;19.30;70.90;;;;;;4837703;29;19936;-62
2023/04/18 12:59:21;;;;;;;;;;;19.40;70.80;;;;;;4833307;29;19916;-63
2023/04/18 13:01:47;;;;;;;;;;;19.50;68.90;;;;;;4839090;29;21387;-63
2023/04/18 13:04:13;;;;;;;;;;;19.40;64.50;;;;;;4835736;29;20388;-64
2023/04/18 13:06:38;;;;;;;;;;;19.20;66.30;;;;;;4837151;29;19920;-63
2023/04/18 13:09:04;;;;;;;;;;;19.00;62.60;;;;;;4833471;29;20519;-64
2023/04/18 13:11:29;;;;;;;;;;;18.90;65.70;;;;;;4835704;29;20560;-63
2023/04/18 13:13:55;;;;;;;;;;;18.80;63.70;;;;;;4832439;29;19913;-64
2023/04/18 13:16:21;;;;;;;;;;;18.60;64.80;;;;;;4825404;29;19935;-63
2023/04/18 13:18:47;;;;;;;;;;;18.70;66.20;;;;;;4829103;29;20242;-64
2023/04/18 13:21:12;;;;;;;;;;;18.60;65.50;;;;;;4828791;29;19916;-64
2023/04/18 13:23:38;;;;;;;;;;;18.60;66.10;;;;;;4829807;29;19920;-64
2023/04/18 13:26:03;;;;;;;;;;;18.60;66.50;;;;;;4824974;29;19916;-64
2023/04/18 13:28:29;;;;;;;;;;;18.60;67.50;;;;;;4830605;29;19923;-63
2023/04/18 13:30:54;;;;;;;;;;;18.70;65.30;;;;;;4832579;29;19927;-63
2023/04/18 13:33:20;;;;;;;;;;;18.80;63.40;;;;;;4831594;29;19916;-63
2023/04/18 13:35:46;;;;;;;;;;;18.80;63.20;;;;;;4825766;29;20385;-70
2023/04/18 13:38:11;;;;;;;;;;;19.00;64.50;;;;;;4829335;29;19920;-69
2023/04/18 13:40:37;;;;;;;;;;;19.20;73.30;;;;;;4826941;29;19916;-64
2023/04/18 13:43:03;;;;;;;;;;;19.60;64.40;;;;;;4827137;29;20071;-64
2023/04/18 13:45:28;;;;;;;;;;;19.60;63.60;;;;;;4823333;29;20764;-64
2023/04/18 13:47:54;;;;;;;;;;;19.70;63.00;;;;;;4829017;29;20703;-66
2023/04/18 13:50:20;;;;;;;;;;;19.80;60.00;;;;;;4830141;29;19928;-63
2023/04/18 13:52:47;;;;;;;;;;;19.80;65.80;;;;;;4834342;29;20010;-63
2023/04/18 13:55:13;;;;;;;;;;;19.80;65.10;;;;;;4829700;29;20035;-63
2023/04/18 13:57:38;;;;;;;;;;;20.00;62.50;;;;;;4826706;29;19980;-64
2023/04/18 14:00:08;;;;;;;;;;;20.10;60.80;;;;;;4825661;29;20447;-66
2023/04/18 14:02:33;;;;;;;;;;;20.00;59.50;;;;;;4827374;29;20547;-65
2023/04/18 14:04:59;;;;;;;;;;;20.00;60.70;;;;;;4818057;29;19920;-65
2023/04/18 14:07:24;;;;;;;;;;;20.10;62.70;;;;;;4844837;29;19971;-66
2023/04/18 14:09:50;;;;;;;;;;;20.20;61.10;;;;;;4844647;29;19927;-66
2023/04/18 14:12:15;;;;;;;;;;;20.10;66.20;;;;;;4839210;29;19924;-65
2023/04/18 14:14:41;;;;;;;;;;;20.20;64.00;;;;;;4827420;29;19920;-62